Flight Track Log - Related Links

Times and Time Zones

All times are in EDT time to prevent confusion due to time zone crossing. See the N76AD flight status page for this flight to view local times or setup timezone preferences in your user account.

Time Position Orientation Groundspeed Altitude Reporting Facility
EDT Latitude Longitude Course Direction KTS MPH feet Rate Location/Type
Sat 01:31:38 PM 41.3222 -72.0669 306° West 81 93 800  Level Boston Center
Sat 01:32:14 PM 41.3328 -72.0864 306° West 92 106 1,300 804 Climbing Boston Center
Sat 01:33:15 PM 41.3350 -72.1139 276° West 73 84 2,100 689 Climbing Boston Center
Sat 01:34:16 PM 41.3372 -72.1414 276° West 74 85 2,700 545 Climbing Boston Center
Sat 01:35:16 PM 41.3456 -72.1664 294° West 79 91 3,200 545 Climbing Boston Center
Sat 01:36:17 PM 41.3456 -72.1939 270° West 71 82 3,800 545 Climbing Boston Center
Sat 01:37:17 PM 41.3456 -72.2189 270° West 67 77 4,300 416 Climbing Boston Center
Sat 01:39:39 PM 41.3500 -72.2833 275° West 74 85 5,200 356 Climbing New York TRACON
Sat 01:40:39 PM 41.3333 -72.2833 180° South 72 83 5,500 365 Climbing New York TRACON
Sat 01:41:34 PM 41.3167 -72.3000 217° Southwest 69 79 5,900 261 Climbing New York TRACON
Sat 01:42:34 PM 41.3000 -72.3333 236° Southwest 78 90 6,000 50 Climbing New York TRACON
Sat 01:43:34 PM 41.2833 -72.3500 217° Southwest 79 91 6,000 -50 Level New York TRACON
Sat 01:44:34 PM 41.2667 -72.3667 217° Southwest 81 93 5,900  Descending New York TRACON
Sat 01:45:33 PM 41.2500 -72.3833 217° Southwest 77 89 6,000  Climbing New York TRACON
Sat 01:46:34 PM 41.2333 -72.4167 236° Southwest 86 99 5,900 -50 Descending New York TRACON
Sat 01:47:33 PM 41.2167 -72.4333 217° Southwest 83 96 5,900  Level New York TRACON
Sat 01:48:34 PM 41.2000 -72.4500 217° Southwest 82 94 5,900  Level New York TRACON
Sat 01:49:34 PM 41.1833 -72.4667 217° Southwest 84 97 5,900  Level New York TRACON
Sat 01:50:28 PM 41.1667 -72.4833 217° Southwest 81 93 5,900  Level New York TRACON
Sat 01:51:28 PM 41.1667 -72.5167 270° West 81 93 5,900  Level New York TRACON
Sat 01:52:28 PM 41.1500 -72.5333 217° Southwest 81 93 5,900  Level New York TRACON
Sat 01:53:28 PM 41.1333 -72.5500 217° Southwest 83 96 5,900 -50 Level New York TRACON
Sat 01:54:28 PM 41.1167 -72.5667 217° Southwest 82 94 5,800  Descending New York TRACON
Sat 01:55:28 PM 41.1000 -72.5833 217° Southwest 75 86 5,900 53 Climbing New York TRACON
Sat 01:56:22 PM 41.0833 -72.6167 236° Southwest 78 90 5,900  Level New York TRACON
Sat 01:57:22 PM 41.0667 -72.6333 217° Southwest 79 91 5,900  Level New York TRACON
Sat 01:58:22 PM 41.0500 -72.6333 180° South 81 93 5,900  Level New York TRACON
Sat 01:59:22 PM 41.0333 -72.6667 236° Southwest 79 91 5,900  Level New York TRACON
Sat 02:00:22 PM 41.0167 -72.6833 217° Southwest 74 85 5,900  Level New York TRACON
Sat 02:01:22 PM 41.0167 -72.7000 270° West 79 91 5,900  Level New York TRACON
Sat 02:02:22 PM 41.0000 -72.7167 217° Southwest 82 94 5,900  Level New York TRACON
Sat 02:03:16 PM 40.9833 -72.7333 217° Southwest 81 93 5,900  Level New York TRACON
Sat 02:04:16 PM 40.9667 -72.7667 236° Southwest 78 90 5,900  Level New York TRACON
Sat 02:05:16 PM 40.9500 -72.7833 217° Southwest 74 85 5,900  Level New York TRACON
Sat 02:06:16 PM 40.9333 -72.8000 217° Southwest 75 86 5,900  Level New York TRACON
Sat 02:07:16 PM 40.9333 -72.8167 270° West 78 90 5,900  Level New York TRACON
Sat 02:08:16 PM 40.9167 -72.8500 237° Southwest 80 92 5,900  Level New York TRACON
Sat 02:09:16 PM 40.9167 -72.8833 270° West 76 87 5,900 -211 Level New York TRACON
Sat 02:10:10 PM 40.9167 -72.9000 270° West 81 93 5,500 -421 Descending New York TRACON
Sat 02:11:10 PM 40.9167 -72.9333 270° West 80 92 5,100 -350 Descending New York TRACON
Sat 02:12:10 PM 40.9167 -72.9667 270° West 78 90 4,800 -300 Descending New York TRACON
Sat 02:13:10 PM 40.9167 -72.9833 270° West 79 91 4,500 -316 Descending New York TRACON
Sat 02:14:04 PM 40.9333 -73.0167 304° West 96 110 4,200 -316 Descending New York TRACON
Sat 02:15:04 PM 40.9500 -73.0500 304° West 101 116 3,900 -250 Descending New York TRACON
Sat 02:16:04 PM 40.9667 -73.0500 360° North 121 139 3,700 -200 Descending New York TRACON
Sat 02:17:04 PM 41.0000 -73.0333 21° North 129 148 3,500 -200 Descending New York TRACON
Sat 02:18:04 PM 41.0333 -73.0167 21° North 128 147 3,300 -211 Descending New York TRACON
Sat 02:18:58 PM 41.0667 -73.0000 21° North 131 151 3,100 -316 Descending New York TRACON
Sat 02:19:58 PM 41.1000 -72.9667 37° Northeast 135 155 2,700 -429 Descending New York TRACON
Sat 02:21:04 PM 41.1167 -72.9167 66° East 140 161 2,200 -381 Descending New York TRACON
Sat 02:22:04 PM 41.1500 -72.9167 360° North 130 150 1,900 -105 Descending New York TRACON
Sat 02:22:58 PM 41.1833 -72.9333 339° North 107 123 2,000 -105 Climbing New York TRACON
Sat 02:23:58 PM 41.1833 -72.9667 270° West 95 109 1,700 -300 Descending New York TRACON
Sat 02:24:58 PM 41.1833 -73.0000 270° West 83 96 1,400 -150 Descending New York TRACON
Sat 02:25:58 PM 41.1667 -73.0167 217° Southwest 69 79 1,400 -150 Level New York TRACON
Sat 02:26:58 PM 41.1667 -73.0333 270° West 74 85 1,100 -300 Descending New York TRACON
Sat 02:27:58 PM 41.1667 -73.0667 270° West 66 76 800 -200 Descending New York TRACON
Sat 02:28:58 PM 41.1667 -73.0833 270° West 91 105 700 -100 Descending New York TRACON
Sat 02:30:00 PM 41.1446 -73.1001 210° Southwest  Level Estimated
Sat 02:37:00 PM 40.9953 -73.2131 210° Southwest  Level Estimated
Sat 02:38:00 PM 40.9739 -73.2292 210° Southwest  Level Estimated

Login

Don't have an account? Register now (free) for customized features, flight alerts, and more!